Siam — SGIP — position and weather

sailwx.info

Track history (hours):
 
Tides and Currents Weather Stations Pressure Air Temp Water Temp Dewpoint Dewpoint Depression Visibility Wind Speed Wind Dir Waves Ship Positions

Siam

Last reported at 2018-Jan-20 14:05 UTC. Time now 2018-Jan-22 02:39 UTC.
Position N 55°60' E 012°45'.

Length 22 m.

Type: Passenger vessel. MMSI: 265572320.

Date/timePositionNaut miles runAvg speedWind from/ knotsBaromVisibWave heightAir tempDewpointWater temp
2018-Jan-20 14:05N 55°60' E 012°45'1 8.5
2018-Jan-20 13:56N 55°59' E 012°42'1 1.5
2018-Jan-20 13:30N 55°59' E 012°41'1 1.3
2018-Jan-20 13:00N 55°58' E 012°41'2 3.2
2018-Jan-20 12:31N 55°56' E 012°41'1 1.4
2018-Jan-20 12:00N 55°56' E 012°40'0 0.0
2018-Jan-20 11:26N 55°56' E 012°40'1 2.9
2018-Jan-20 10:59N 55°56' E 012°42'1 1.7
2018-Jan-20 10:30N 55°56' E 012°43'2 4.0
2018-Jan-20 10:00N 55°55' E 012°46'2 3.9
2018-Jan-20 09:30N 55°56' E 012°43'0 0.1
2018-Jan-20 08:56N 55°56' E 012°43'0 0.3
2018-Jan-20 08:30N 55°56' E 012°43'3 5.9
2018-Jan-20 07:57N 55°59' E 012°44'1 0.0
2018-Jan-19 07:41N 55°60' E 012°45'0 0.0
2018-Jan-19 05:26N 55°60' E 012°45'0 0.0
2018-Jan-19 04:59N 55°60' E 012°45'0 0.0
2018-Jan-19 04:26N 55°60' E 012°45'0 0.0
2018-Jan-19 03:56N 55°60' E 012°45'0 0.0
2018-Jan-19 03:14N 55°60' E 012°45'0 0.0
2018-Jan-19 02:59N 55°60' E 012°45'0 0.0
2018-Jan-19 02:20N 55°60' E 012°45'0 0.0
2018-Jan-19 01:50N 55°60' E 012°45'0 0.0
2018-Jan-19 01:29N 55°60' E 012°45'0 0.0
2018-Jan-19 00:35N 55°60' E 012°45'0 0.0
2018-Jan-19 00:29N 55°60' E 012°45'0 0.0
2018-Jan-18 23:44N 55°60' E 012°45'0 0.0
2018-Jan-18 23:29N 55°60' E 012°45'0 0.0
2018-Jan-18 22:05N 55°60' E 012°45'0 0.0
2018-Jan-18 19:59N 55°60' E 012°45'0 0.0
2018-Jan-18 17:20N 55°60' E 012°45'0 0.0
2018-Jan-18 16:59N 55°60' E 012°45'0 0.0
2018-Jan-18 15:26N 55°60' E 012°45'0 0.0
2018-Jan-18 14:38N 55°60' E 012°45'0 0.0
2018-Jan-18 14:29N 55°60' E 012°45'0 0.0
2018-Jan-18 13:53N 55°60' E 012°45'0 0.0
2018-Jan-18 13:23N 55°60' E 012°45'0 0.0
2018-Jan-18 10:32N 55°60' E 012°45'0 0.0
2018-Jan-18 10:17N 55°60' E 012°45'0 0.0
2018-Jan-18 09:59N 55°60' E 012°45'0 0.0
2018-Jan-18 09:23N 55°60' E 012°45'  
2018-Jan-12 14:58N 55°60' E 012°45'0 0.0
2018-Jan-12 14:28N 55°60' E 012°45'0 0.3
2018-Jan-12 13:58N 55°59' E 012°44'4 9.4
2018-Jan-12 13:30N 55°55' E 012°45'1 1.3
2018-Jan-12 12:59N 55°54' E 012°45'0 0.7
2018-Jan-12 12:25N 55°55' E 012°45'0 0.5
2018-Jan-12 12:00N 55°55' E 012°45'0 0.9
2018-Jan-12 11:29N 55°55' E 012°45'0 0.5
2018-Jan-12 10:57N 55°54' E 012°45'1 2.5
2018-Jan-12 10:30N 55°55' E 012°44'1 1.5
2018-Jan-12 10:00N 55°56' E 012°44'0 0.1
2018-Jan-12 09:16N 55°56' E 012°43'2 6.9
2018-Jan-12 09:01N 55°58' E 012°42'1 2.7
2018-Jan-12 08:29N 55°59' E 012°42'1 2.8
2018-Jan-12 08:00N 55°60' E 012°45'0 0.0
2018-Jan-12 07:30N 55°60' E 012°45'0 0.0
2018-Jan-12 06:48N 55°60' E 012°45'0 0.0
2018-Jan-12 06:30N 55°60' E 012°45'0 0.0
2018-Jan-12 06:00N 55°60' E 012°45'0 0.0
2018-Jan-12 05:27N 55°60' E 012°45'0 0.0
2018-Jan-12 04:57N 55°60' E 012°45'0 0.0
2018-Jan-12 04:30N 55°60' E 012°45'0 0.0
2018-Jan-12 03:57N 55°60' E 012°45'0 0.0
2018-Jan-12 03:30N 55°60' E 012°45'0 0.0
2018-Jan-12 03:00N 55°60' E 012°45'0 0.0
2018-Jan-12 02:21N 55°60' E 012°45'0 0.0
2018-Jan-12 01:57N 55°60' E 012°45'0 0.0
2018-Jan-12 01:30N 55°60' E 012°45'0 0.0
2018-Jan-12 01:00N 55°60' E 012°45'0 0.0
2018-Jan-12 00:27N 55°60' E 012°45'0 0.0
2018-Jan-12 00:00N 55°60' E 012°45'0 0.0
2018-Jan-11 23:27N 55°60' E 012°45'0 0.0
2018-Jan-11 23:00N 55°60' E 012°45'0 0.0
2018-Jan-11 22:30N 55°60' E 012°45'0 0.0
2018-Jan-11 22:00N 55°60' E 012°45'0 0.0
2018-Jan-11 21:18N 55°60' E 012°45'0 0.0
2018-Jan-11 20:54N 55°60' E 012°45'0 0.0
2018-Jan-11 20:15N 55°60' E 012°45'0 0.0
2018-Jan-11 19:51N 55°60' E 012°45'0 0.0
2018-Jan-11 19:30N 55°60' E 012°45'0 0.0
2018-Jan-11 19:00N 55°60' E 012°45'0 0.0
2018-Jan-11 18:30N 55°60' E 012°45'0 0.0
2018-Jan-11 17:57N 55°60' E 012°45'0 0.0
2018-Jan-11 17:30N 55°60' E 012°45'0 0.0
2018-Jan-11 17:00N 55°60' E 012°45'0 0.0
2018-Jan-11 16:24N 55°60' E 012°45'0 0.0
2018-Jan-11 16:00N 55°60' E 012°45'0 0.0
2018-Jan-11 15:30N 55°60' E 012°45'0 0.0
2018-Jan-11 14:57N 55°60' E 012°45'0 0.0
2018-Jan-11 14:30N 55°60' E 012°45'0 0.0
2018-Jan-11 13:57N 55°60' E 012°45'0 0.0
2018-Jan-11 13:21N 55°60' E 012°45'0 0.0
2018-Jan-11 13:00N 55°60' E 012°45'0 0.0
2018-Jan-11 12:30N 55°60' E 012°45'0 0.0
2018-Jan-11 11:57N 55°60' E 012°45'0 0.0
2018-Jan-11 11:30N 55°60' E 012°45'0 0.0
2018-Jan-11 11:00N 55°60' E 012°45'0 0.0
2018-Jan-11 10:27N 55°60' E 012°45'0 0.0
2018-Jan-11 09:57N 55°60' E 012°45'0 0.0
2018-Jan-11 09:30N 55°60' E 012°45'0 0.0
2018-Jan-11 09:00N 55°60' E 012°45'0 0.0
2018-Jan-11 08:30N 55°60' E 012°45'0 0.0
2018-Jan-11 08:00N 55°60' E 012°45'0 0.0
2018-Jan-11 07:30N 55°60' E 012°45'0 0.0
2018-Jan-11 06:42N 55°60' E 012°45'0 0.0
2018-Jan-11 06:30N 55°60' E 012°45'0 0.0
2018-Jan-11 06:00N 55°60' E 012°45'0 0.0
2018-Jan-11 05:27N 55°60' E 012°45'0 0.0
2018-Jan-11 05:00N 55°60' E 012°45'0 0.0
2018-Jan-11 04:24N 55°60' E 012°45'0 0.0
2018-Jan-11 03:57N 55°60' E 012°45'0 0.0
2018-Jan-11 03:27N 55°60' E 012°45'0 0.0
2018-Jan-11 03:00N 55°60' E 012°45'0 0.0
2018-Jan-11 02:30N 55°60' E 012°45'0 0.0
2018-Jan-11 02:00N 55°60' E 012°45'0 0.0
2018-Jan-11 01:30N 55°60' E 012°45'0 0.0
2018-Jan-11 01:00N 55°60' E 012°45'0 0.0
2018-Jan-11 00:30N 55°60' E 012°45'0 0.0
2018-Jan-11 00:00N 55°60' E 012°45'0 0.0
2018-Jan-10 23:30N 55°60' E 012°45'0 0.0
2018-Jan-10 23:00N 55°60' E 012°45'0 0.0
2018-Jan-10 22:30N 55°60' E 012°45'0 0.0
2018-Jan-10 22:00N 55°60' E 012°45'0 0.0
2018-Jan-10 21:30N 55°60' E 012°45'0 0.0
2018-Jan-10 20:57N 55°60' E 012°45'0 0.0
2018-Jan-10 20:27N 55°60' E 012°45'0 0.0
2018-Jan-10 20:00N 55°60' E 012°45'0 0.0
2018-Jan-10 19:30N 55°60' E 012°45'0 0.0
2018-Jan-10 19:00N 55°60' E 012°45'0 0.0
2018-Jan-10 18:30N 55°60' E 012°45'0 0.0
2018-Jan-10 17:54N 55°60' E 012°45'0 0.0
2018-Jan-10 17:30N 55°60' E 012°45'0 0.0
2018-Jan-10 17:00N 55°60' E 012°45'0 0.0
2018-Jan-10 16:27N 55°60' E 012°45'0 0.0
2018-Jan-10 15:57N 55°60' E 012°45'0 0.0
2018-Jan-10 15:27N 55°60' E 012°45'0 0.0
2018-Jan-10 15:00N 55°60' E 012°45'0 0.0
2018-Jan-10 14:30N 55°60' E 012°45'  
Track history (hours):
 
Tides and Currents Weather Stations Pressure Air Temp Water Temp Dewpoint Dewpoint Depression Visibility Wind Speed Wind Dir Waves Ship Positions

Siam

Last reported at 2018-Jan-20 14:05 UTC. Time now 2018-Jan-22 02:39 UTC.
Position N 55°60' E 012°45'.

Length 22 m.

Type: Passenger vessel. MMSI: 265572320.

Date/timePositionNaut miles runAvg speedWind from/ knotsBaromVisibWave heightAir tempDewpointWater temp
2018-Jan-20 14:05N 55°60' E 012°45'1 8.5
2018-Jan-20 13:56N 55°59' E 012°42'1 1.5
2018-Jan-20 13:30N 55°59' E 012°41'1 1.3
2018-Jan-20 13:00N 55°58' E 012°41'2 3.2
2018-Jan-20 12:31N 55°56' E 012°41'1 1.4
2018-Jan-20 12:00N 55°56' E 012°40'0 0.0
2018-Jan-20 11:26N 55°56' E 012°40'1 2.9
2018-Jan-20 10:59N 55°56' E 012°42'1 1.7
2018-Jan-20 10:30N 55°56' E 012°43'2 4.0
2018-Jan-20 10:00N 55°55' E 012°46'2 3.9
2018-Jan-20 09:30N 55°56' E 012°43'0 0.1
2018-Jan-20 08:56N 55°56' E 012°43'0 0.3
2018-Jan-20 08:30N 55°56' E 012°43'3 5.9
2018-Jan-20 07:57N 55°59' E 012°44'1 0.0
2018-Jan-19 07:41N 55°60' E 012°45'0 0.0
2018-Jan-19 05:26N 55°60' E 012°45'0 0.0
2018-Jan-19 04:59N 55°60' E 012°45'0 0.0
2018-Jan-19 04:26N 55°60' E 012°45'0 0.0
2018-Jan-19 03:56N 55°60' E 012°45'0 0.0
2018-Jan-19 03:14N 55°60' E 012°45'0 0.0
2018-Jan-19 02:59N 55°60' E 012°45'0 0.0
2018-Jan-19 02:20N 55°60' E 012°45'0 0.0
2018-Jan-19 01:50N 55°60' E 012°45'0 0.0
2018-Jan-19 01:29N 55°60' E 012°45'0 0.0
2018-Jan-19 00:35N 55°60' E 012°45'0 0.0
2018-Jan-19 00:29N 55°60' E 012°45'0 0.0
2018-Jan-18 23:44N 55°60' E 012°45'0 0.0
2018-Jan-18 23:29N 55°60' E 012°45'0 0.0
2018-Jan-18 22:05N 55°60' E 012°45'0 0.0
2018-Jan-18 19:59N 55°60' E 012°45'0 0.0
2018-Jan-18 17:20N 55°60' E 012°45'0 0.0
2018-Jan-18 16:59N 55°60' E 012°45'0 0.0
2018-Jan-18 15:26N 55°60' E 012°45'0 0.0
2018-Jan-18 14:38N 55°60' E 012°45'0 0.0
2018-Jan-18 14:29N 55°60' E 012°45'0 0.0
2018-Jan-18 13:53N 55°60' E 012°45'0 0.0
2018-Jan-18 13:23N 55°60' E 012°45'0 0.0
2018-Jan-18 10:32N 55°60' E 012°45'0 0.0
2018-Jan-18 10:17N 55°60' E 012°45'0 0.0
2018-Jan-18 09:59N 55°60' E 012°45'0 0.0
2018-Jan-18 09:23N 55°60' E 012°45'  
2018-Jan-12 14:58N 55°60' E 012°45'0 0.0
2018-Jan-12 14:28N 55°60' E 012°45'0 0.3
2018-Jan-12 13:58N 55°59' E 012°44'4 9.4
2018-Jan-12 13:30N 55°55' E 012°45'1 1.3
2018-Jan-12 12:59N 55°54' E 012°45'0 0.7
2018-Jan-12 12:25N 55°55' E 012°45'0 0.5
2018-Jan-12 12:00N 55°55' E 012°45'0 0.9
2018-Jan-12 11:29N 55°55' E 012°45'0 0.5
2018-Jan-12 10:57N 55°54' E 012°45'1 2.5
2018-Jan-12 10:30N 55°55' E 012°44'1 1.5
2018-Jan-12 10:00N 55°56' E 012°44'0 0.1
2018-Jan-12 09:16N 55°56' E 012°43'2 6.9
2018-Jan-12 09:01N 55°58' E 012°42'1 2.7
2018-Jan-12 08:29N 55°59' E 012°42'1 2.8
2018-Jan-12 08:00N 55°60' E 012°45'0 0.0
2018-Jan-12 07:30N 55°60' E 012°45'0 0.0
2018-Jan-12 06:48N 55°60' E 012°45'0 0.0
2018-Jan-12 06:30N 55°60' E 012°45'0 0.0
2018-Jan-12 06:00N 55°60' E 012°45'0 0.0
2018-Jan-12 05:27N 55°60' E 012°45'0 0.0
2018-Jan-12 04:57N 55°60' E 012°45'0 0.0
2018-Jan-12 04:30N 55°60' E 012°45'0 0.0
2018-Jan-12 03:57N 55°60' E 012°45'0 0.0
2018-Jan-12 03:30N 55°60' E 012°45'0 0.0
2018-Jan-12 03:00N 55°60' E 012°45'0 0.0
2018-Jan-12 02:21N 55°60' E 012°45'0 0.0
2018-Jan-12 01:57N 55°60' E 012°45'0 0.0
2018-Jan-12 01:30N 55°60' E 012°45'0 0.0
2018-Jan-12 01:00N 55°60' E 012°45'0 0.0
2018-Jan-12 00:27N 55°60' E 012°45'0 0.0
2018-Jan-12 00:00N 55°60' E 012°45'0 0.0
2018-Jan-11 23:27N 55°60' E 012°45'0 0.0
2018-Jan-11 23:00N 55°60' E 012°45'0 0.0
2018-Jan-11 22:30N 55°60' E 012°45'0 0.0
2018-Jan-11 22:00N 55°60' E 012°45'0 0.0
2018-Jan-11 21:18N 55°60' E 012°45'0 0.0
2018-Jan-11 20:54N 55°60' E 012°45'0 0.0
2018-Jan-11 20:15N 55°60' E 012°45'0 0.0
2018-Jan-11 19:51N 55°60' E 012°45'0 0.0
2018-Jan-11 19:30N 55°60' E 012°45'0 0.0
2018-Jan-11 19:00N 55°60' E 012°45'0 0.0
2018-Jan-11 18:30N 55°60' E 012°45'0 0.0
2018-Jan-11 17:57N 55°60' E 012°45'0 0.0
2018-Jan-11 17:30N 55°60' E 012°45'0 0.0
2018-Jan-11 17:00N 55°60' E 012°45'0 0.0
2018-Jan-11 16:24N 55°60' E 012°45'0 0.0
2018-Jan-11 16:00N 55°60' E 012°45'0 0.0
2018-Jan-11 15:30N 55°60' E 012°45'0 0.0
2018-Jan-11 14:57N 55°60' E 012°45'0 0.0
2018-Jan-11 14:30N 55°60' E 012°45'0 0.0
2018-Jan-11 13:57N 55°60' E 012°45'0 0.0
2018-Jan-11 13:21N 55°60' E 012°45'0 0.0
2018-Jan-11 13:00N 55°60' E 012°45'0 0.0
2018-Jan-11 12:30N 55°60' E 012°45'0 0.0
2018-Jan-11 11:57N 55°60' E 012°45'0 0.0
2018-Jan-11 11:30N 55°60' E 012°45'0 0.0
2018-Jan-11 11:00N 55°60' E 012°45'0 0.0
2018-Jan-11 10:27N 55°60' E 012°45'0 0.0
2018-Jan-11 09:57N 55°60' E 012°45'0 0.0
2018-Jan-11 09:30N 55°60' E 012°45'0 0.0
2018-Jan-11 09:00N 55°60' E 012°45'0 0.0
2018-Jan-11 08:30N 55°60' E 012°45'0 0.0
2018-Jan-11 08:00N 55°60' E 012°45'0 0.0
2018-Jan-11 07:30N 55°60' E 012°45'0 0.0
2018-Jan-11 06:42N 55°60' E 012°45'0 0.0
2018-Jan-11 06:30N 55°60' E 012°45'0 0.0
2018-Jan-11 06:00N 55°60' E 012°45'0 0.0
2018-Jan-11 05:27N 55°60' E 012°45'0 0.0
2018-Jan-11 05:00N 55°60' E 012°45'0 0.0
2018-Jan-11 04:24N 55°60' E 012°45'0 0.0
2018-Jan-11 03:57N 55°60' E 012°45'0 0.0
2018-Jan-11 03:27N 55°60' E 012°45'0 0.0
2018-Jan-11 03:00N 55°60' E 012°45'0 0.0
2018-Jan-11 02:30N 55°60' E 012°45'0 0.0
2018-Jan-11 02:00N 55°60' E 012°45'0 0.0
2018-Jan-11 01:30N 55°60' E 012°45'0 0.0
2018-Jan-11 01:00N 55°60' E 012°45'0 0.0
2018-Jan-11 00:30N 55°60' E 012°45'0 0.0
2018-Jan-11 00:00N 55°60' E 012°45'0 0.0
2018-Jan-10 23:30N 55°60' E 012°45'0 0.0
2018-Jan-10 23:00N 55°60' E 012°45'0 0.0
2018-Jan-10 22:30N 55°60' E 012°45'0 0.0
2018-Jan-10 22:00N 55°60' E 012°45'0 0.0
2018-Jan-10 21:30N 55°60' E 012°45'0 0.0
2018-Jan-10 20:57N 55°60' E 012°45'0 0.0
2018-Jan-10 20:27N 55°60' E 012°45'0 0.0
2018-Jan-10 20:00N 55°60' E 012°45'0 0.0
2018-Jan-10 19:30N 55°60' E 012°45'0 0.0
2018-Jan-10 19:00N 55°60' E 012°45'0 0.0
2018-Jan-10 18:30N 55°60' E 012°45'0 0.0
2018-Jan-10 17:54N 55°60' E 012°45'0 0.0
2018-Jan-10 17:30N 55°60' E 012°45'0 0.0
2018-Jan-10 17:00N 55°60' E 012°45'0 0.0
2018-Jan-10 16:27N 55°60' E 012°45'0 0.0
2018-Jan-10 15:57N 55°60' E 012°45'0 0.0
2018-Jan-10 15:27N 55°60' E 012°45'0 0.0
2018-Jan-10 15:00N 55°60' E 012°45'0 0.0
2018-Jan-10 14:30N 55°60' E 012°45'  

Dump ship's entire track history